Time;durP1;ratioP1;P1;durP2;ratioP2;P2;SDS_P1;SDS_P2;PMS_P1;PMS_P2;Temp;Humidity;BMP_temperature;BMP_pressure;BME280_temperature;BME280_humidity;BME280_pressure;Samples;Min_cycle;Max_cycle;Signal;HPM_P1;HPM_P2
2022/06/14 00:01:05;;;;;;;5.45;0.98;;;;;;;13.56;61.67;101131.13;5007941;28;20415;-71
2022/06/14 00:03:35;;;;;;;5.03;0.80;;;;;;;13.47;62.02;101129.44;5022583;28;20065;-72
2022/06/14 00:06:04;;;;;;;3.40;0.88;;;;;;;13.45;61.65;101139.19;5019911;28;20056;-72
2022/06/14 00:08:29;;;;;;;3.17;1.20;;;;;;;13.39;61.43;101136.59;5023909;28;20025;-71
2022/06/14 00:10:58;;;;;;;2.65;0.63;;;;;;;13.36;61.73;101148.09;5023859;28;20080;-71
2022/06/14 00:13:25;;;;;;;3.10;0.70;;;;;;;13.31;62.27;101143.72;5022215;28;20050;-71
2022/06/14 00:15:51;;;;;;;2.60;0.88;;;;;;;13.22;62.15;101141.09;5019061;28;20030;-72
2022/06/14 00:18:17;;;;;;;3.35;0.95;;;;;;;13.18;62.48;101145.53;5024229;28;20033;-71
2022/06/14 00:20:44;;;;;;;2.22;0.75;;;;;;;13.14;62.76;101144.66;5023732;28;20042;-72
2022/06/14 00:23:10;;;;;;;3.05;0.90;;;;;;;13.14;62.43;101142.00;5022432;28;20400;-71
2022/06/14 00:25:41;;;;;;;4.60;0.90;;;;;;;13.15;62.71;101157.06;5023263;28;20041;-71
2022/06/14 00:28:10;;;;;;;3.00;0.80;;;;;;;13.11;62.37;101157.06;5019513;28;20041;-71
2022/06/14 00:30:36;;;;;;;3.13;1.00;;;;;;;12.99;63.62;101158.00;5023532;28;20040;-71
2022/06/14 00:33:02;;;;;;;3.22;1.00;;;;;;;12.89;63.21;101162.50;5024146;28;20056;-71
2022/06/14 00:35:28;;;;;;;2.38;0.80;;;;;;;12.78;63.63;101156.38;5022165;28;20049;-72
2022/06/14 00:37:54;;;;;;;2.70;0.95;;;;;;;12.66;64.67;101154.69;5024672;28;20033;-72
2022/06/14 00:40:24;;;;;;;2.22;0.85;;;;;;;12.66;64.45;101165.28;5021865;28;20484;-72
2022/06/14 00:42:49;;;;;;;5.43;1.00;;;;;;;12.62;64.62;101163.50;5022711;28;20041;-71
2022/06/14 00:45:18;;;;;;;3.95;1.00;;;;;;;12.61;64.45;101164.41;5024106;28;20412;-71
2022/06/14 00:47:47;;;;;;;5.20;1.13;;;;;;;12.55;64.83;101167.09;5021707;28;20543;-72
2022/06/14 00:50:21;;;;;;;2.28;0.75;;;;;;;12.50;64.85;101166.22;5018528;28;20042;-72
2022/06/14 00:53:06;;;;;;;3.58;1.10;;;;;;;12.41;66.24;101179.47;5021005;28;20037;-71
2022/06/14 00:55:38;;;;;;;3.40;1.30;;;;;;;12.35;66.39;101174.22;5017197;28;20131;-71
2022/06/14 00:58:18;;;;;;;3.15;1.02;;;;;;;12.30;66.65;101176.88;5020459;28;20073;-71
2022/06/14 01:00:54;;;;;;;2.05;1.05;;;;;;;12.27;66.49;101172.47;5020598;28;20037;-71
2022/06/14 01:03:23;;;;;;;2.60;0.90;;;;;;;12.25;66.43;101170.72;5016852;28;20473;-71
2022/06/14 01:06:06;;;;;;;3.28;1.08;;;;;;;12.20;66.64;101183.94;5022479;28;20077;-71
2022/06/14 01:08:40;;;;;;;4.78;1.33;;;;;;;12.17;66.36;101181.31;5017049;28;20100;-71
2022/06/14 01:11:10;;;;;;;3.30;1.00;;;;;;;12.10;66.29;101179.56;5020638;28;20419;-71
2022/06/14 01:13:37;;;;;;;3.65;1.35;;;;;;;12.05;65.91;101181.31;5023400;28;20056;-71
2022/06/14 01:16:02;;;;;;;3.97;1.70;;;;;;;11.99;66.89;101178.72;5016893;28;20092;-71
2022/06/14 01:18:29;;;;;;;2.08;0.82;;;;;;;11.92;66.76;101171.66;5022471;28;20050;-71
2022/06/14 01:20:54;;;;;;;3.00;1.35;;;;;;;11.89;66.77;101182.25;5021031;28;20029;-72
2022/06/14 01:23:20;;;;;;;3.05;1.30;;;;;;;11.88;66.70;101178.72;5020875;28;20552;-71
2022/06/14 01:25:53;;;;;;;3.53;1.00;;;;;;;11.89;67.14;101180.47;5020200;28;20025;-71
2022/06/14 01:28:22;;;;;;;3.92;0.90;;;;;;;11.90;67.25;101181.38;5017255;28;20030;-71
2022/06/14 01:30:51;;;;;;;3.33;1.30;;;;;;;11.92;66.60;101179.59;5021521;28;20037;-71
2022/06/14 01:33:32;;;;;;;3.50;1.20;;;;;;;11.91;66.94;101177.84;5022227;28;20052;-72
2022/06/14 01:36:04;;;;;;;3.65;1.20;;;;;;;11.95;66.99;101174.31;5019352;28;20041;-72
2022/06/14 01:38:30;;;;;;;;;;;;;;;11.96;67.72;101173.44;5020408;28;20049;-71
2022/06/14 01:41:14;;;;;;;3.13;1.02;;;;;;;12.05;67.23;101181.31;5022299;28;19913;-72
2022/06/14 01:43:51;;;;;;;5.22;1.00;;;;;;;12.20;67.86;101183.94;5022759;28;20443;-72
2022/06/14 01:46:27;;;;;;;3.95;1.05;;;;;;;12.37;67.12;101177.75;5018632;28;20042;-72
2022/06/14 01:52:02;;;;;;;3.05;1.05;;;;;;;12.61;66.29;101182.94;5059933;28;20387;-72
2022/06/14 01:54:42;;;;;;;3.25;1.08;;;;;;;12.63;65.66;101175.00;5057362;28;20496;-72
2022/06/14 01:57:16;;;;;;;3.60;1.40;;;;;;;12.67;65.80;101182.91;5055828;28;20033;-72
2022/06/14 01:59:53;;;;;;;4.10;1.50;;;;;;;12.65;65.56;101186.44;5056836;28;20486;-72
2022/06/14 02:02:34;;;;;;;4.03;1.50;;;;;;;12.62;65.78;101194.41;5057665;28;20479;-72
2022/06/14 02:05:02;;;;;;;4.15;1.23;;;;;;;12.56;65.80;101194.44;5054135;28;20415;-72
2022/06/14 02:07:54;;;;;;;3.95;1.30;;;;;;;12.50;65.30;101196.22;5058422;28;20511;-72
2022/06/14 02:10:32;;;;;;;6.47;1.75;;;;;;;12.33;65.83;101202.44;5056019;28;20195;-72
2022/06/14 02:12:57;;;;;;;9.93;1.50;;;;;;;12.21;66.17;101203.38;5052396;28;20095;-72
2022/06/14 02:15:30;;;;;;;6.03;1.45;;;;;;;12.14;66.38;101205.13;5053284;28;20024;-72
2022/06/14 02:18:15;;;;;;;6.65;1.33;;;;;;;12.02;67.41;101211.31;5058874;28;20064;-72
2022/06/14 02:20:51;;;;;;;2.88;1.50;;;;;;;11.97;67.12;101214.84;5056129;28;20127;-72
2022/06/14 02:23:17;;;;;;;6.82;1.40;;;;;;;11.94;67.68;101209.56;5052077;28;20064;-72
2022/06/14 02:25:49;;;;;;;4.72;1.40;;;;;;;11.97;67.69;101220.16;5057280;28;20094;-72
2022/06/14 02:28:21;;;;;;;;;;;;;;;11.88;67.71;101213.09;5058787;28;20041;-72
2022/06/14 02:31:00;;;;;;;3.40;1.23;;;;;;;11.83;68.24;101225.41;5056021;28;19924;-72
2022/06/14 02:33:34;;;;;;;4.78;1.30;;;;;;;11.88;67.52;101222.81;5057329;28;20041;-72
2022/06/14 02:36:11;;;;;;;5.63;1.30;;;;;;;11.94;67.27;101222.81;5052405;28;20492;-72
2022/06/14 02:39:06;;;;;;;3.30;1.40;;;;;;;12.00;67.96;101221.03;5056937;28;20033;-72
2022/06/14 02:41:44;;;;;;;4.72;1.42;;;;;;;12.05;67.15;101223.66;5055497;28;20095;-71
2022/06/14 02:44:27;;;;;;;4.53;1.15;;;;;;;11.94;67.76;101222.81;5054707;28;20040;-72
2022/06/14 02:47:03;;;;;;;5.43;1.60;;;;;;;11.89;67.81;101224.56;5053412;28;20041;-72
2022/06/14 02:49:34;;;;;;;4.05;1.50;;;;;;;11.95;68.17;101230.75;5056181;28;20065;-72
2022/06/14 02:52:11;;;;;;;3.70;1.35;;;;;;;12.04;67.48;101221.91;5051291;28;20037;-72
2022/06/14 02:55:02;;;;;;;7.20;1.48;;;;;;;12.11;67.31;101228.09;5054398;28;20049;-71
2022/06/14 02:57:54;;;;;;;5.40;1.45;;;;;;;12.18;67.02;101229.81;5056735;28;20119;-72
2022/06/14 03:00:28;;;;;;;6.25;1.10;;;;;;;12.37;66.74;101228.03;5057471;28;20028;-72
2022/06/14 03:03:07;;;;;;;4.05;1.38;;;;;;;12.50;66.04;101228.00;5041589;28;20500;-72
2022/06/14 03:05:37;;;;;;;6.10;1.40;;;;;;;12.61;65.63;101227.97;5042368;28;20038;-72
2022/06/14 03:08:15;;;;;;;4.72;1.35;;;;;;;12.63;65.32;101234.13;5039803;28;20490;-72
2022/06/14 03:11:10;;;;;;;6.25;1.23;;;;;;;12.68;65.48;101242.03;5042021;28;20036;-72
2022/06/14 03:13:53;;;;;;;5.35;1.50;;;;;;;12.79;65.15;101250.84;5045140;28;20049;-72
2022/06/14 03:16:39;;;;;;;5.70;1.23;;;;;;;12.80;64.90;101243.78;5041424;28;20087;-72
2022/06/14 03:19:34;;;;;;;3.15;1.38;;;;;;;12.74;64.95;101242.03;5043023;28;20094;-72
2022/06/14 03:22:17;;;;;;;3.67;1.20;;;;;;;12.76;64.71;101244.66;5038934;28;20123;-72
2022/06/14 03:25:12;;;;;;;4.55;1.33;;;;;;;12.69;64.67;101244.69;5040663;28;20047;-72
2022/06/14 03:27:42;;;;;;;2.58;0.93;;;;;;;12.62;64.90;101252.66;5043756;28;20037;-72
2022/06/14 03:30:34;;;;;;;5.13;1.50;;;;;;;12.56;65.30;101258.00;5038962;28;20034;-72
2022/06/14 03:33:38;;;;;;;4.38;0.93;;;;;;;12.48;65.61;101260.66;5038311;28;20056;-72
2022/06/14 03:36:06;;;;;;;2.75;1.20;;;;;;;12.35;65.45;101258.91;5025751;28;20049;-72
2022/06/14 03:38:44;;;;;;;3.95;1.23;;;;;;;12.33;65.31;101261.56;5041415;28;20033;-72
2022/06/14 03:41:13;;;;;;;2.63;0.80;;;;;;;12.30;65.71;101255.41;5041665;28;20041;-72
2022/06/14 03:43:40;;;;;;;5.75;1.20;;;;;;;12.23;65.66;101259.81;5044901;28;20079;-72
2022/06/14 03:46:11;;;;;;;3.95;0.98;;;;;;;12.17;65.79;101250.13;5038119;28;20088;-72
2022/06/14 03:48:39;;;;;;;3.22;0.93;;;;;;;12.16;65.42;101244.84;5041818;28;20029;-72
2022/06/14 03:51:25;;;;;;;3.65;0.80;;;;;;;12.15;65.08;101238.66;5043106;28;20036;-72
2022/06/14 03:54:05;;;;;;;6.00;1.48;;;;;;;12.17;64.81;101244.81;5041780;28;20140;-72
2022/06/14 03:56:54;;;;;;;5.03;1.05;;;;;;;12.15;65.22;101251.88;5033156;28;20038;-72
2022/06/14 03:59:45;;;;;;;6.07;1.30;;;;;;;12.16;65.03;101248.38;5031543;28;20033;-72
2022/06/14 04:02:53;;;;;;;5.65;1.25;;;;;;;12.14;65.89;101252.78;5038515;28;20040;-72
2022/06/14 04:05:24;;;;;;;3.15;1.10;;;;;;;12.14;65.70;101255.41;5042032;28;20049;-72
2022/06/14 04:08:08;;;;;;;8.25;1.30;;;;;;;12.19;66.05;101256.28;5039176;28;20047;-72
2022/06/14 04:10:51;;;;;;;5.35;1.98;;;;;;;12.24;66.36;101257.16;5037789;28;20072;-72
2022/06/14 04:13:39;;;;;;;6.95;2.03;;;;;;;12.19;66.25;101252.78;5039491;28;20411;-72
2022/06/14 04:16:23;;;;;;;3.72;1.40;;;;;;;12.20;66.23;101257.16;5041000;28;20033;-72
2022/06/14 04:18:59;;;;;;;3.50;1.27;;;;;;;12.24;65.71;101258.94;5041846;28;20041;-72
2022/06/14 04:21:31;;;;;;;4.90;1.15;;;;;;;12.25;66.03;101253.63;5037387;28;20109;-72
2022/06/14 04:24:22;;;;;;;4.68;1.25;;;;;;;12.35;66.16;101251.84;5040930;28;20037;-72
2022/06/14 04:26:57;;;;;;;8.27;2.30;;;;;;;12.50;66.04;101254.47;5042007;28;20471;-72
2022/06/14 04:29:46;;;;;;;9.38;2.22;;;;;;;12.74;65.65;101250.00;5019872;28;20038;-72
2022/06/14 04:32:27;;;;;;;3.78;1.58;;;;;;;12.99;64.70;101248.09;5036646;28;20037;-72
2022/06/14 04:35:06;;;;;;;6.07;2.50;;;;;;;13.15;64.10;101248.91;5040842;28;20044;-71
2022/06/14 04:37:42;;;;;;;8.15;2.13;;;;;;;13.34;63.90;101255.91;5039762;28;20033;-72
2022/06/14 04:40:14;;;;;;;9.65;2.50;;;;;;;13.47;63.79;101254.06;5036921;28;20865;-72
2022/06/14 04:42:57;;;;;;;;;;;;;;;13.53;63.50;101242.53;5039634;28;20037;-72
2022/06/14 04:45:30;;;;;;;5.72;1.83;;;;;;;13.55;63.15;101244.28;5037218;28;19913;-72
2022/06/14 04:48:08;;;;;;;6.03;1.92;;;;;;;13.57;63.10;101246.91;5041608;28;20041;-72
2022/06/14 04:50:47;;;;;;;5.28;1.52;;;;;;;13.66;62.90;101248.63;5035486;28;20032;-72
2022/06/14 04:53:16;;;;;;;5.93;1.95;;;;;;;13.72;62.51;101257.41;5038477;28;20527;-72
2022/06/14 04:56:04;;;;;;;3.80;1.50;;;;;;;13.73;61.62;101255.66;5036527;28;20033;-72
2022/06/14 04:58:40;;;;;;;5.88;1.33;;;;;;;13.85;61.81;101262.63;5039808;28;20037;-72
2022/06/14 05:01:22;;;;;;;8.00;2.17;;;;;;;13.89;61.43;101257.31;5040622;28;20060;-72
2022/06/14 05:04:01;;;;;;;6.38;1.70;;;;;;;13.86;61.32;101259.06;5038342;28;20037;-72
2022/06/14 05:06:34;;;;;;;6.45;1.58;;;;;;;13.86;61.09;101269.69;5039848;28;20042;-72
2022/06/14 05:09:01;;;;;;;5.13;1.70;;;;;;;13.80;61.71;101265.31;5041908;28;20448;-72
2022/06/14 05:11:42;;;;;;;9.55;1.80;;;;;;;13.72;62.31;101272.47;5040860;28;20017;-72
2022/06/14 05:14:22;;;;;;;6.05;1.35;;;;;;;13.64;62.31;101274.28;5037808;28;20049;-72
2022/06/14 05:17:03;;;;;;;5.22;1.35;;;;;;;13.65;62.55;101268.97;5037298;28;20037;-72
2022/06/14 05:19:45;;;;;;;7.50;2.15;;;;;;;13.77;61.51;101270.66;5040671;28;20064;-72
2022/06/14 05:22:19;;;;;;;5.60;1.77;;;;;;;13.77;61.43;101268.00;5037816;28;20033;-72
2022/06/14 05:24:45;;;;;;;4.82;1.30;;;;;;;13.84;61.61;101269.72;5039774;28;20047;-72
2022/06/14 05:27:22;;;;;;;6.40;1.73;;;;;;;14.01;60.95;101259.81;5042641;28;20029;-72
2022/06/14 05:30:03;;;;;;;8.10;2.63;;;;;;;14.08;61.17;101265.97;5041624;28;20037;-72
2022/06/14 05:33:07;;;;;;;5.60;1.83;;;;;;;14.09;61.52;101266.84;5036910;28;20033;-72
2022/06/14 05:35:37;;;;;;;9.02;2.17;;;;;;;14.16;60.49;101263.25;5041558;28;20112;-71
2022/06/14 05:38:08;;;;;;;6.72;1.80;;;;;;;14.27;60.37;101269.34;5036196;28;20095;-73
2022/06/14 05:40:51;;;;;;;6.80;1.67;;;;;;;14.40;59.51;101273.63;5040746;28;20040;-72
2022/06/14 05:43:34;;;;;;;7.53;2.10;;;;;;;14.58;60.00;101280.56;5036813;28;20507;-72
2022/06/14 05:46:05;;;;;;;5.88;1.70;;;;;;;14.61;59.01;101285.84;5039449;28;20052;-72
2022/06/14 05:48:36;;;;;;;6.50;2.25;;;;;;;14.36;58.96;101285.19;5041385;28;20048;-72
2022/06/14 05:51:06;;;;;;;5.60;1.80;;;;;;;14.38;59.18;101278.09;5041095;28;20040;-72
2022/06/14 05:53:49;;;;;;;4.68;1.50;;;;;;;14.45;59.21;101285.09;5039398;28;20140;-72
2022/06/14 05:56:31;;;;;;;9.35;1.98;;;;;;;14.65;58.77;101294.66;5039516;28;20075;-72
2022/06/14 05:58:56;;;;;;;;;;;;;;;14.67;58.58;101285.78;5039692;28;20037;-73
2022/06/14 06:01:32;;;;;;;4.75;1.20;;;;;;;14.77;57.07;101286.53;5039301;28;19920;-72
2022/06/14 06:04:18;;;;;;;4.05;1.40;;;;;;;14.77;57.08;101283.88;5037083;28;20125;-72
2022/06/14 06:06:46;;;;;;;7.65;1.65;;;;;;;14.85;56.95;101297.97;5031758;28;20495;-72
2022/06/14 06:09:15;;;;;;;6.43;1.55;;;;;;;14.96;55.87;101284.56;5040402;28;20044;-72
2022/06/14 06:11:47;;;;;;;6.35;1.48;;;;;;;14.95;55.21;101287.25;5039014;28;20620;-72
2022/06/14 06:14:22;;;;;;;7.45;1.60;;;;;;;15.06;55.54;101290.63;5042554;28;20175;-72
2022/06/14 06:17:05;;;;;;;5.43;1.50;;;;;;;15.33;55.15;101276.13;5040879;28;20526;-72
2022/06/14 06:19:40;;;;;;;7.15;1.25;;;;;;;15.57;53.01;101288.19;5036113;28;20087;-72
2022/06/14 06:22:11;;;;;;;5.57;1.30;;;;;;;15.61;52.69;101292.53;5038941;28;20029;-72
2022/06/14 06:24:47;;;;;;;5.40;1.10;;;;;;;15.67;52.40;101280.94;5035923;28;20037;-72
2022/06/14 06:27:12;;;;;;;6.03;1.20;;;;;;;15.78;52.09;101295.88;5039721;28;20286;-72
2022/06/14 06:29:56;;;;;;;6.22;1.50;;;;;;;15.74;52.30;101285.28;5041979;28;20033;-72
2022/06/14 06:32:23;;;;;;;7.07;1.40;;;;;;;15.89;52.40;101289.50;5038602;28;20617;-72
2022/06/14 06:34:50;;;;;;;5.57;1.30;;;;;;;15.89;52.17;101292.16;5039345;28;20034;-72
2022/06/14 06:37:38;;;;;;;6.78;1.60;;;;;;;16.00;51.33;101304.38;5043583;28;20024;-72
2022/06/14 06:40:06;;;;;;;6.22;1.40;;;;;;;15.78;49.77;101298.53;5042725;28;20033;-72
2022/06/14 06:42:41;;;;;;;4.07;1.05;;;;;;;15.84;50.94;101296.66;5042760;28;20075;-72
2022/06/14 06:45:21;;;;;;;6.13;1.13;;;;;;;16.02;50.26;101303.50;5043432;28;20297;-72
2022/06/14 06:47:56;;;;;;;4.50;1.00;;;;;;;16.17;49.57;101305.91;5041347;28;20048;-72
2022/06/14 06:50:39;;;;;;;3.60;1.08;;;;;;;16.19;49.15;101302.31;5041356;28;20029;-72
2022/06/14 06:53:12;;;;;;;4.60;1.20;;;;;;;16.39;48.96;101306.41;5042651;28;20045;-72
2022/06/14 06:55:46;;;;;;;5.28;1.20;;;;;;;16.31;49.25;101313.66;5038483;28;20057;-72
2022/06/14 06:58:20;;;;;;;4.63;1.13;;;;;;;16.10;49.72;101305.13;5042303;28;20060;-72
2022/06/14 07:00:47;;;;;;;7.90;1.60;;;;;;;16.16;49.14;101302.34;5041672;28;20029;-72
2022/06/14 07:03:22;;;;;;;5.50;1.70;;;;;;;16.24;48.39;101304.00;5042248;28;20037;-72
2022/06/14 07:05:55;;;;;;;8.50;1.10;;;;;;;16.42;49.19;101303.66;5042921;28;20049;-72
2022/06/14 07:08:34;;;;;;;7.00;1.50;;;;;;;16.36;48.70;101295.81;5038639;28;20041;-72
2022/06/14 07:11:01;;;;;;;4.63;1.10;;;;;;;16.47;48.55;101307.13;5041786;28;20037;-72
2022/06/14 07:13:40;;;;;;;5.80;1.30;;;;;;;16.50;48.55;101303.53;5045476;28;20122;-72
2022/06/14 07:16:27;;;;;;;4.15;1.00;;;;;;;16.58;47.85;101310.50;5044108;28;20038;-72
2022/06/14 07:19:19;;;;;;;6.07;0.93;;;;;;;16.74;47.55;101297.75;5041509;28;20037;-72
2022/06/14 07:21:54;;;;;;;5.07;1.00;;;;;;;16.96;47.49;101303.56;5041620;28;20076;-72
2022/06/14 07:24:27;;;;;;;4.50;1.20;;;;;;;17.10;46.45;101303.28;5035200;28;20557;-72
2022/06/14 07:27:00;;;;;;;5.15;1.40;;;;;;;17.08;47.00;101298.00;5041380;28;20037;-72
2022/06/14 07:29:38;;;;;;;6.05;1.00;;;;;;;17.12;46.11;101308.59;5041873;28;20041;-72
2022/06/14 07:32:17;;;;;;;6.53;1.17;;;;;;;16.78;46.35;101296.81;5041407;28;20036;-72
2022/06/14 07:34:44;;;;;;;4.45;1.02;;;;;;;16.78;47.34;101287.94;5038857;28;20049;-72
2022/06/14 07:37:17;;;;;;;6.07;1.25;;;;;;;16.93;46.62;101282.31;5043654;28;20123;-72
2022/06/14 07:39:56;;;;;;;4.57;1.20;;;;;;;17.21;46.91;101295.03;5044660;28;20045;-72
2022/06/14 07:42:33;;;;;;;7.40;1.40;;;;;;;17.48;46.32;101290.91;5038950;28;20047;-72
2022/06/14 07:45:18;;;;;;;5.63;1.20;;;;;;;17.71;45.01;101293.94;5044701;28;20044;-72
2022/06/14 07:48:00;;;;;;;4.28;0.90;;;;;;;17.83;45.19;101283.91;5044257;28;20040;-72
2022/06/14 07:50:42;;;;;;;4.97;1.48;;;;;;;17.88;44.76;101285.53;5041612;28;20033;-72
2022/06/14 07:53:16;;;;;;;7.82;1.67;;;;;;;18.12;44.25;101283.16;5038995;28;20045;-72
2022/06/14 07:55:47;;;;;;;5.28;1.10;;;;;;;18.22;44.31;101281.16;5041525;28;20045;-72
2022/06/14 07:58:20;;;;;;;3.75;1.00;;;;;;;18.25;44.13;101279.25;5037943;28;20029;-72
2022/06/14 08:01:08;;;;;;;3.92;1.05;;;;;;;18.32;43.60;101275.50;5042513;28;20029;-72
2022/06/14 08:03:49;;;;;;;7.30;1.10;;;;;;;18.26;42.69;101275.69;5040558;28;20036;-72
2022/06/14 08:06:26;;;;;;;5.43;0.82;;;;;;;18.47;42.31;101278.69;5038628;28;20512;-72
2022/06/14 08:08:59;;;;;;;4.97;1.02;;;;;;;18.33;41.57;101277.25;5041731;28;20037;-72
2022/06/14 08:11:44;;;;;;;5.47;1.15;;;;;;;18.58;42.04;101287.31;5036272;28;20022;-72
2022/06/14 08:14:17;;;;;;;5.68;1.20;;;;;;;18.61;41.64;101276.53;5031194;28;20063;-72
2022/06/14 08:16:45;;;;;;;5.28;1.65;;;;;;;18.83;41.68;101272.34;5041478;28;20043;-72
2022/06/14 08:19:18;;;;;;;5.75;1.38;;;;;;;18.97;41.37;101273.78;5043376;28;20041;-72
2022/06/14 08:21:47;;;;;;;5.22;1.02;;;;;;;18.79;40.61;101269.81;5036795;28;20030;-72
2022/06/14 08:24:27;;;;;;;5.38;1.52;;;;;;;18.45;41.07;101277.88;5042775;28;20033;-72
2022/06/14 08:27:03;;;;;;;6.80;1.33;;;;;;;18.45;40.39;101277.88;5049558;28;20551;-72
2022/06/14 08:29:34;;;;;;;3.55;0.98;;;;;;;18.66;40.78;101269.25;5042037;28;20041;-73
2022/06/14 08:32:09;;;;;;;4.45;1.10;;;;;;;18.91;40.47;101271.25;5042012;28;20029;-72
2022/06/14 08:34:48;;;;;;;7.10;1.23;;;;;;;19.26;39.75;101272.91;5042214;28;20419;-72
2022/06/14 08:37:19;;;;;;;3.58;1.02;;;;;;;19.29;40.02;101277.28;5036794;28;20041;-73
2022/06/14 08:39:55;;;;;;;6.82;1.15;;;;;;;19.35;39.54;101274.41;5042316;28;20099;-72
2022/06/14 08:42:32;;;;;;;4.95;1.00;;;;;;;19.22;38.94;101268.56;5042901;28;20052;-72
2022/06/14 08:45:01;;;;;;;4.50;1.08;;;;;;;19.02;39.01;101285.19;5042223;28;20142;-72
2022/06/14 08:47:42;;;;;;;4.13;0.95;;;;;;;19.07;39.39;101269.88;5040614;28;20031;-72
2022/06/14 08:50:18;;;;;;;3.25;0.70;;;;;;;19.24;39.19;101278.28;5039607;28;20037;-72
2022/06/14 08:53:00;;;;;;;7.50;1.80;;;;;;;19.03;38.31;101279.81;5039471;28;20139;-72
2022/06/14 08:56:10;;;;;;;7.35;1.15;;;;;;;18.87;39.49;101272.28;5039623;28;20108;-72
2022/06/14 08:58:59;;;;;;;6.05;1.50;;;;;;;19.19;38.99;101266.84;5009471;28;20061;-72
2022/06/14 09:01:58;;;;;;;4.63;1.10;;;;;;;19.67;38.61;101285.00;5008635;28;20033;-72
2022/06/14 09:05:07;;;;;;;4.15;1.27;;;;;;;19.54;37.62;101280.06;5034602;28;20099;-72
2022/06/14 09:07:52;;;;;;;5.40;1.10;;;;;;;19.52;37.51;101271.19;5039650;28;20084;-72
2022/06/14 09:10:48;;;;;;;4.82;1.17;;;;;;;19.14;38.73;101290.19;5036085;28;20033;-72
2022/06/14 09:13:50;;;;;;;3.70;1.00;;;;;;;19.10;38.12;101275.16;5039767;28;20049;-72
2022/06/14 09:16:46;;;;;;;4.43;1.00;;;;;;;19.36;37.59;101263.66;5043212;28;20032;-74
2022/06/14 09:19:14;;;;;;;5.38;1.05;;;;;;;19.17;38.13;101271.34;5037582;28;20040;-72
2022/06/14 09:22:09;;;;;;;3.70;0.80;;;;;;;18.81;39.17;101263.50;5040690;28;20498;-72
2022/06/14 09:25:01;;;;;;;2.88;1.05;;;;;;;18.87;39.57;101261.59;5041551;28;20612;-72
2022/06/14 09:27:46;;;;;;;3.38;0.88;;;;;;;19.03;37.54;101249.50;5041595;28;20066;-72
2022/06/14 09:30:35;;;;;;;5.18;1.20;;;;;;;19.19;39.07;101248.13;5040526;28;20040;-72
2022/06/14 09:33:16;;;;;;;2.42;0.73;;;;;;;19.37;37.47;101259.19;5037165;28;20404;-72
2022/06/14 09:36:00;;;;;;;4.75;1.00;;;;;;;19.76;37.53;101257.06;5038156;28;20068;-72
2022/06/14 09:38:59;;;;;;;4.57;1.00;;;;;;;20.05;37.02;101249.88;5035667;28;20044;-72
2022/06/14 09:42:04;;;;;;;3.92;1.05;;;;;;;20.55;36.50;101248.09;5038248;28;20065;-72
2022/06/14 09:45:02;;;;;;;6.90;1.50;;;;;;;20.48;35.88;101242.97;5035686;28;20037;-73
2022/06/14 09:48:02;;;;;;;2.78;0.90;;;;;;;20.65;35.05;101253.16;5019690;28;20420;-72
2022/06/14 09:51:05;;;;;;;5.07;1.25;;;;;;;20.54;35.06;101232.97;5040664;28;20123;-72
2022/06/14 09:54:10;;;;;;;6.97;1.63;;;;;;;20.06;36.01;101246.25;5037026;28;20506;-72
2022/06/14 09:57:00;;;;;;;5.20;1.30;;;;;;;20.33;35.54;101245.31;5041009;28;20512;-72
2022/06/14 09:59:40;;;;;;;4.60;1.10;;;;;;;19.88;36.01;101253.09;5041497;28;20116;-72
2022/06/14 10:02:33;;;;;;;4.05;0.80;;;;;;;19.47;36.33;101247.28;5038221;28;20144;-72
2022/06/14 10:05:28;;;;;;;5.53;1.08;;;;;;;19.36;36.87;101250.28;5039879;28;20047;-72
2022/06/14 10:08:09;;;;;;;5.88;1.08;;;;;;;19.64;36.47;101238.69;5041414;28;20033;-72
2022/06/14 10:11:11;;;;;;;3.08;0.95;;;;;;;19.60;36.38;101245.94;5038500;28;20041;-73
2022/06/14 10:14:05;;;;;;;6.10;1.23;;;;;;;19.74;34.76;101242.84;5045891;28;20522;-72
2022/06/14 10:16:46;;;;;;;8.50;1.42;;;;;;;20.22;35.05;101247.47;5040183;28;20052;-72
2022/06/14 10:19:30;;;;;;;5.28;1.30;;;;;;;20.69;33.55;101230.63;5043252;28;20041;-72
2022/06/14 10:22:28;;;;;;;4.43;1.05;;;;;;;21.12;33.82;101229.03;5043299;28;20037;-73
2022/06/14 10:25:10;;;;;;;7.40;1.17;;;;;;;21.00;33.47;101236.59;5036912;28;20048;-72
2022/06/14 10:28:14;;;;;;;4.60;0.93;;;;;;;20.68;34.09;101242.31;5043473;28;20476;-72
2022/06/14 10:31:07;;;;;;;3.80;1.00;;;;;;;20.37;35.26;101235.31;5040189;28;20048;-73
2022/06/14 10:33:43;;;;;;;5.13;1.42;;;;;;;20.38;34.80;101241.56;5041339;28;20045;-72
2022/06/14 10:36:45;;;;;;;5.63;0.95;;;;;;;20.38;34.51;101229.03;5042915;28;20041;-72
2022/06/14 10:39:29;;;;;;;4.13;1.15;;;;;;;20.54;34.26;101226.69;5041047;28;20034;-72
2022/06/14 10:42:02;;;;;;;3.63;0.88;;;;;;;20.92;34.49;101235.13;5039753;28;20091;-72
2022/06/14 10:44:40;;;;;;;9.88;1.58;;;;;;;21.02;32.69;101225.81;5043848;28;20430;-72
2022/06/14 10:47:39;;;;;;;5.38;1.17;;;;;;;21.13;31.98;101220.03;5039700;28;20041;-72
2022/06/14 10:50:37;;;;;;;3.95;1.00;;;;;;;21.17;32.53;101224.34;5042075;28;20049;-73
2022/06/14 10:53:32;;;;;;;4.93;1.15;;;;;;;20.86;33.91;101222.84;5044127;28;20029;-73
2022/06/14 10:56:08;;;;;;;4.38;1.20;;;;;;;21.14;33.23;101221.75;5045370;28;20044;-73
2022/06/14 10:58:51;;;;;;;3.05;1.00;;;;;;;21.30;31.58;101208.59;5044252;28;20046;-73
2022/06/14 11:01:33;;;;;;;7.13;1.10;;;;;;;21.23;32.85;101210.66;5039854;28;20112;-72
2022/06/14 11:04:16;;;;;;;4.32;1.00;;;;;;;20.93;33.14;101216.31;5038767;28;20492;-73
2022/06/14 11:07:08;;;;;;;6.32;1.20;;;;;;;21.05;32.85;101231.06;5042733;28;20111;-73
2022/06/14 11:10:10;;;;;;;4.70;1.13;;;;;;;20.90;32.32;101218.22;5045083;28;20399;-73
2022/06/14 11:12:35;;;;;;;;;;;;;;;21.13;32.95;101209.28;5040376;28;20499;-73
2022/06/14 11:15:24;;;;;;;6.67;1.10;;;;;;;21.49;33.17;101208.78;5043584;28;19919;-73
2022/06/14 11:18:05;;;;;;;4.75;0.93;;;;;;;21.51;31.82;101206.88;5041754;28;20280;-72
2022/06/14 11:21:00;;;;;;;4.70;0.93;;;;;;;21.07;32.81;101220.28;5039367;28;20480;-73
2022/06/14 11:23:54;;;;;;;3.55;0.88;;;;;;;21.06;32.32;101215.81;5034656;28;20546;-73
2022/06/14 11:26:43;;;;;;;4.90;0.90;;;;;;;20.92;31.91;101206.50;5041794;28;20399;-72
2022/06/14 11:29:16;;;;;;;6.22;1.08;;;;;;;21.02;32.00;101218.63;5041853;28;20041;-73
2022/06/14 11:31:51;;;;;;;7.25;1.25;;;;;;;20.73;32.86;101203.66;5041042;28;20547;-73
2022/06/14 11:34:33;;;;;;;2.70;0.98;;;;;;;21.40;32.20;101192.09;5043427;28;20049;-72
2022/06/14 11:37:10;;;;;;;3.45;1.00;;;;;;;21.66;31.26;101208.94;5038384;28;20503;-72
2022/06/14 11:39:48;;;;;;;6.35;1.20;;;;;;;21.75;31.73;101203.22;5042554;28;20116;-72
2022/06/14 11:42:29;;;;;;;5.05;1.15;;;;;;;21.98;30.06;101209.41;5039287;28;20124;-73
2022/06/14 11:45:19;;;;;;;4.80;1.00;;;;;;;22.37;30.90;101193.38;5038112;28;20051;-72
2022/06/14 11:47:56;;;;;;;4.53;1.10;;;;;;;22.36;30.32;101205.06;5038196;28;20083;-72
2022/06/14 11:50:53;;;;;;;5.22;1.20;;;;;;;22.44;29.41;101191.28;5042201;28;20025;-73
2022/06/14 11:53:46;;;;;;;4.65;0.80;;;;;;;22.79;29.78;101191.47;5044211;28;20037;-72
2022/06/14 11:56:24;;;;;;;3.10;0.95;;;;;;;23.21;28.49;101203.88;5037490;28;20057;-73
2022/06/14 11:59:33;;;;;;;5.90;1.48;;;;;;;23.16;28.72;101186.16;5036648;28;20111;-73
2022/06/14 12:02:12;;;;;;;5.43;1.40;;;;;;;23.05;29.20;101185.75;5036379;28;20049;-73
2022/06/14 12:05:01;;;;;;;4.63;1.10;;;;;;;23.69;28.18;101167.41;5041086;28;20049;-73
2022/06/14 12:07:37;;;;;;;5.13;1.45;;;;;;;24.02;27.85;101173.75;5041030;28;20029;-73
2022/06/14 12:10:22;;;;;;;6.00;1.63;;;;;;;23.93;27.75;101176.94;5042567;28;20029;-73
2022/06/14 12:12:55;;;;;;;4.32;1.30;;;;;;;24.34;27.97;101182.00;5038855;28;20499;-73
2022/06/14 12:15:46;;;;;;;3.95;1.20;;;;;;;24.10;28.32;101169.78;5041209;28;20068;-73
2022/06/14 12:18:15;;;;;;;5.60;1.40;;;;;;;24.20;27.80;101173.75;5043324;28;20044;-73
2022/06/14 12:20:51;;;;;;;3.85;1.10;;;;;;;24.57;27.15;101166.41;5037483;28;20033;-73
2022/06/14 12:23:32;;;;;;;4.18;1.20;;;;;;;24.37;26.76;101160.25;5041413;28;20037;-73
2022/06/14 12:29:06;;;;;;;8.95;1.55;;;;;;;24.87;26.29;101174.66;5042344;28;20036;-73